Time;durP1;ratioP1;P1;durP2;ratioP2;P2;SDS_P1;SDS_P2;PMS_P1;PMS_P2;Temp;Humidity;BMP_temperature;BMP_pressure;BME280_temperature;BME280_humidity;BME280_pressure;Samples;Min_cycle;Max_cycle;Signal;HPM_P1;HPM_P2
2021/10/29 00:00:36;;;;;;;83.13;57.60;;;7.70;99.90;;;;;;5016062;28;20033;-51
2021/10/29 00:03:04;;;;;;;81.90;58.75;;;7.80;99.90;;;;;;5016490;28;20053;-49
2021/10/29 00:05:31;;;;;;;82.75;57.17;;;7.90;99.90;;;;;;5015984;28;20029;-48
2021/10/29 00:07:57;;;;;;;80.28;57.22;;;7.90;99.90;;;;;;4981548;28;20477;-49
2021/10/29 00:10:23;;;;;;;79.65;57.50;;;7.90;99.90;;;;;;5015859;28;20030;-48
2021/10/29 00:12:49;;;;;;;81.88;56.30;;;8.00;99.90;;;;;;4965327;28;20425;-50
2021/10/29 00:15:16;;;;;;;71.90;51.88;;;7.90;99.90;;;;;;5015920;28;20028;-48
2021/10/29 00:17:41;;;;;;;70.05;51.28;;;8.00;99.90;;;;;;5015716;28;20433;-48
2021/10/29 00:20:08;;;;;;;79.35;52.50;;;8.00;99.90;;;;;;4977443;28;20137;-48
2021/10/29 00:22:34;;;;;;;72.63;51.60;;;7.90;99.90;;;;;;5000914;28;20087;-48
2021/10/29 00:25:00;;;;;;;68.63;51.67;;;7.70;99.90;;;;;;5035590;28;20362;-50
2021/10/29 00:27:26;;;;;;;72.00;49.22;;;7.70;99.90;;;;;;4941801;28;20039;-49
2021/10/29 00:29:54;;;;;;;96.78;63.50;;;7.70;99.90;;;;;;4974418;28;20045;-48
2021/10/29 00:32:20;;;;;;;84.70;54.83;;;7.80;99.90;;;;;;4974070;28;20039;-49
2021/10/29 00:34:46;;;;;;;87.97;57.80;;;7.90;99.90;;;;;;4974208;28;20110;-50
2021/10/29 00:37:12;;;;;;;88.20;58.95;;;7.80;99.90;;;;;;4974078;28;20474;-48
2021/10/29 00:39:38;;;;;;;93.07;59.75;;;7.80;99.90;;;;;;4973996;28;20105;-50
2021/10/29 00:42:04;;;;;;;96.70;60.80;;;7.70;99.90;;;;;;4974038;28;20042;-51
2021/10/29 00:44:30;;;;;;;79.70;54.75;;;7.60;99.90;;;;;;4957790;28;20051;-49
2021/10/29 00:46:57;;;;;;;59.47;43.15;;;7.30;99.90;;;;;;4974061;28;20522;-49
2021/10/29 00:49:22;;;;;;;62.80;43.85;;;6.70;99.90;;;;;;4957866;28;20529;-50
2021/10/29 00:51:50;;;;;;;61.35;43.97;;;6.60;99.90;;;;;;4954767;28;20116;-49
2021/10/29 00:54:17;;;;;;;57.03;43.17;;;6.80;99.90;;;;;;4974006;28;20569;-51
2021/10/29 00:56:45;;;;;;;58.15;42.47;;;6.90;99.90;;;;;;4973891;28;20478;-50
2021/10/29 00:59:10;;;;;;;61.15;43.33;;;7.00;99.90;;;;;;5023714;28;20034;-48
2021/10/29 01:01:36;;;;;;;58.63;44.38;;;7.00;99.90;;;;;;5034774;28;20082;-51
2021/10/29 01:04:03;;;;;;;61.65;43.53;;;7.00;99.90;;;;;;5034857;28;20349;-49
2021/10/29 01:06:29;;;;;;;61.47;42.88;;;6.60;99.90;;;;;;5034535;28;20029;-49
2021/10/29 01:08:55;;;;;;;58.33;42.40;;;6.00;99.90;;;;;;5034696;28;20128;-45
2021/10/29 01:11:22;;;;;;;58.38;41.22;;;5.30;99.90;;;;;;5034585;28;20112;-52
2021/10/29 01:13:49;;;;;;;55.03;40.65;;;5.00;99.90;;;;;;5034518;28;20372;-53
2021/10/29 01:16:16;;;;;;;52.38;39.25;;;5.20;99.90;;;;;;5034585;28;20028;-52
2021/10/29 01:18:42;;;;;;;54.78;40.63;;;5.60;99.90;;;;;;5034475;28;20025;-52
2021/10/29 01:21:08;;;;;;;57.85;41.05;;;6.00;99.90;;;;;;5023985;28;20026;-52
2021/10/29 01:23:35;;;;;;;53.10;39.40;;;6.20;99.90;;;;;;5015953;28;20125;-51
2021/10/29 01:26:04;;;;;;;54.17;39.55;;;6.20;99.90;;;;;;5014688;28;20042;-52
2021/10/29 01:28:30;;;;;;;56.75;41.55;;;5.80;99.90;;;;;;4980060;28;20705;-52
2021/10/29 01:30:56;;;;;;;56.63;40.67;;;5.90;99.90;;;;;;5012428;28;20129;-52
2021/10/29 01:33:22;;;;;;;53.85;40.92;;;6.10;99.90;;;;;;4980100;28;20038;-50
2021/10/29 01:35:48;;;;;;;56.50;38.80;;;6.00;99.90;;;;;;5014208;28;20073;-52
2021/10/29 01:38:15;;;;;;;53.42;37.78;;;5.90;99.90;;;;;;5014411;28;20088;-50
2021/10/29 01:40:40;;;;;;;51.65;38.28;;;6.10;99.90;;;;;;5014391;28;20441;-52
2021/10/29 01:43:06;;;;;;;52.40;38.60;;;6.30;99.90;;;;;;5014170;28;20034;-50
2021/10/29 01:45:34;;;;;;;54.97;39.10;;;6.50;99.90;;;;;;5014646;28;20037;-50
2021/10/29 01:48:00;;;;;;;56.80;39.75;;;6.60;99.90;;;;;;5014326;28;20038;-51
2021/10/29 01:50:26;;;;;;;55.28;40.50;;;6.70;99.90;;;;;;5014163;28;20029;-52
2021/10/29 01:52:52;;;;;;;55.35;41.05;;;6.60;99.90;;;;;;4979662;28;20038;-52
2021/10/29 01:55:18;;;;;;;55.28;41.42;;;6.50;99.90;;;;;;5013944;28;20026;-52
2021/10/29 01:57:45;;;;;;;54.58;42.78;;;6.60;99.90;;;;;;5014142;28;20041;-49
2021/10/29 02:00:12;;;;;;;56.75;40.40;;;6.70;99.90;;;;;;5014067;28;20036;-52
2021/10/29 02:02:42;;;;;;;52.33;40.67;;;6.70;99.90;;;;;;4963466;28;20115;-50
2021/10/29 02:05:09;;;;;;;53.25;40.55;;;6.70;99.90;;;;;;5013943;28;20038;-51
2021/10/29 02:07:35;;;;;;;83.28;50.22;;;6.80;99.90;;;;;;5014036;28;20064;-50
2021/10/29 02:10:02;;;;;;;283.00;61.35;;;6.80;99.90;;;;;;5014033;28;20121;-50
2021/10/29 02:12:29;;;;;;;413.70;65.47;;;6.80;99.90;;;;;;4953249;29;20484;-51
2021/10/29 02:14:54;;;;;;;435.23;68.88;;;6.80;99.90;;;;;;4953473;29;20066;-50
2021/10/29 02:17:24;;;;;;;247.77;57.83;;;6.80;99.90;;;;;;4953463;29;20464;-52
2021/10/29 02:19:49;;;;;;;224.10;55.35;;;6.70;99.90;;;;;;4953302;29;20042;-50
2021/10/29 02:22:15;;;;;;;325.35;58.53;;;6.50;99.90;;;;;;4953275;29;20043;-51
2021/10/29 02:24:41;;;;;;;396.02;61.92;;;6.50;99.90;;;;;;4953349;29;20046;-53
2021/10/29 02:27:07;;;;;;;287.50;57.95;;;6.40;99.90;;;;;;4937132;29;20158;-52
2021/10/29 02:29:33;;;;;;;263.90;58.40;;;6.40;99.90;;;;;;4953420;29;20031;-50
2021/10/29 02:32:00;;;;;;;303.35;60.40;;;6.50;99.90;;;;;;4953170;29;20194;-51
2021/10/29 02:34:25;;;;;;;241.23;58.00;;;6.50;99.90;;;;;;4953249;29;20035;-51
2021/10/29 02:36:51;;;;;;;233.45;57.30;;;6.40;99.90;;;;;;4952955;29;20130;-50
2021/10/29 02:39:17;;;;;;;276.98;59.33;;;6.30;99.90;;;;;;4953315;29;20447;-51
2021/10/29 02:41:43;;;;;;;325.88;61.33;;;6.40;99.90;;;;;;4921309;29;20039;-49
2021/10/29 02:44:08;;;;;;;307.83;60.70;;;6.30;99.90;;;;;;4966983;28;20553;-52
2021/10/29 02:46:36;;;;;;;237.77;58.40;;;6.30;99.90;;;;;;5013356;28;20121;-51
2021/10/29 02:49:02;;;;;;;242.38;58.28;;;6.30;99.90;;;;;;4979503;28;20034;-52
2021/10/29 02:51:29;;;;;;;187.32;54.55;;;6.30;99.90;;;;;;5013619;28;20034;-52
2021/10/29 02:53:56;;;;;;;200.65;58.00;;;6.20;99.90;;;;;;5013558;28;20424;-52
2021/10/29 02:56:22;;;;;;;173.98;60.58;;;6.20;99.90;;;;;;5013438;28;20034;-50
2021/10/29 02:58:48;;;;;;;143.15;55.63;;;6.10;99.90;;;;;;5013599;28;20026;-50
2021/10/29 03:01:14;;;;;;;117.00;53.20;;;6.10;99.90;;;;;;5013774;28;20043;-51
2021/10/29 03:03:40;;;;;;;114.10;52.95;;;6.00;99.90;;;;;;4979138;28;20061;-52
2021/10/29 03:06:06;;;;;;;132.23;56.90;;;6.00;99.90;;;;;;4995072;28;20509;-52
2021/10/29 03:08:32;;;;;;;153.98;57.40;;;6.10;99.90;;;;;;4981120;28;20034;-51
2021/10/29 03:10:57;;;;;;;147.80;58.65;;;6.20;99.90;;;;;;4982644;28;20045;-51
2021/10/29 03:13:24;;;;;;;105.20;53.92;;;6.30;99.90;;;;;;5017398;28;20030;-51
2021/10/29 03:15:50;;;;;;;121.85;54.42;;;6.40;99.90;;;;;;5017276;28;20049;-49
2021/10/29 03:18:20;;;;;;;144.07;54.85;;;6.40;99.90;;;;;;5017175;28;20026;-51
2021/10/29 03:20:47;;;;;;;125.90;53.70;;;6.40;99.90;;;;;;5017100;28;20368;-52
2021/10/29 03:23:14;;;;;;;106.45;51.45;;;6.30;99.90;;;;;;5014022;28;20113;-51
2021/10/29 03:25:42;;;;;;;101.03;50.17;;;6.40;99.90;;;;;;5016978;28;20045;-52
2021/10/29 03:28:09;;;;;;;133.35;53.33;;;6.40;99.90;;;;;;5016933;28;20030;-50
2021/10/29 03:30:35;;;;;;;122.20;50.50;;;6.50;99.90;;;;;;5016648;28;20038;-51
2021/10/29 03:33:01;;;;;;;123.50;50.35;;;6.50;99.90;;;;;;4982158;28;20092;-52
2021/10/29 03:35:27;;;;;;;199.88;55.60;;;6.40;99.90;;;;;;5016755;28;20066;-49
2021/10/29 03:45:45;;;;;;;200.23;52.72;;;6.20;99.90;;;;;;4937080;29;20088;-51
2021/10/29 03:48:12;;;;;;;212.50;54.45;;;6.10;99.90;;;;;;4907172;29;20496;-52
2021/10/29 03:50:42;;;;;;;239.45;55.40;;;6.10;99.90;;;;;;4905329;29;20040;-50
2021/10/29 03:53:22;;;;;;;213.95;51.20;;;6.10;99.90;;;;;;4936662;29;20126;-51
2021/10/29 03:55:48;;;;;;;160.57;51.28;;;6.10;99.90;;;;;;4908941;29;20162;-52
2021/10/29 03:58:13;;;;;;;111.55;48.28;;;6.00;99.90;;;;;;4936713;29;20040;-53
2021/10/29 04:00:40;;;;;;;121.95;50.30;;;6.00;99.90;;;;;;4904926;29;20040;-51
2021/10/29 04:03:07;;;;;;;105.47;51.72;;;6.10;99.90;;;;;;4936471;29;20035;-50
2021/10/29 04:05:34;;;;;;;228.75;58.35;;;6.00;99.90;;;;;;4936452;29;20103;-50
2021/10/29 04:08:00;;;;;;;226.88;63.08;;;6.00;99.90;;;;;;4936424;29;20044;-52
2021/10/29 04:10:29;;;;;;;366.40;69.13;;;6.00;99.90;;;;;;4936334;29;20031;-49
2021/10/29 04:13:00;;;;;;;300.95;65.07;;;5.90;99.90;;;;;;4936310;29;20047;-50
2021/10/29 04:15:27;;;;;;;198.63;62.87;;;5.90;99.90;;;;;;4936498;29;20036;-50
2021/10/29 04:17:53;;;;;;;210.75;61.42;;;6.00;99.90;;;;;;4936288;29;20032;-53
2021/10/29 04:20:19;;;;;;;233.90;64.18;;;5.90;99.90;;;;;;4981186;28;20379;-52
2021/10/29 04:22:45;;;;;;;300.70;66.43;;;5.80;99.90;;;;;;4901480;28;20588;-51
2021/10/29 04:25:11;;;;;;;200.65;59.72;;;5.80;99.90;;;;;;5015670;28;20496;-51
2021/10/29 04:27:43;;;;;;;332.05;74.32;;;5.90;99.90;;;;;;5015885;28;20046;-50
2021/10/29 04:30:14;;;;;;;274.15;65.57;;;6.10;99.90;;;;;;5015558;28;20457;-50
2021/10/29 04:32:40;;;;;;;321.20;65.80;;;6.10;99.90;;;;;;5015572;28;20037;-52
2021/10/29 04:35:10;;;;;;;245.55;61.58;;;6.20;99.90;;;;;;5015632;28;20033;-52
2021/10/29 04:37:37;;;;;;;305.23;66.15;;;6.20;99.90;;;;;;4962921;28;20422;-51
2021/10/29 04:40:03;;;;;;;233.55;57.70;;;6.30;99.90;;;;;;4995901;28;20023;-52
2021/10/29 04:42:28;;;;;;;255.02;56.92;;;6.40;99.90;;;;;;4945589;28;20038;-51
2021/10/29 04:44:54;;;;;;;321.70;56.80;;;6.40;99.90;;;;;;4995754;28;20030;-49
2021/10/29 04:47:20;;;;;;;236.88;55.97;;;6.50;99.90;;;;;;4995671;28;20700;-50
2021/10/29 04:49:46;;;;;;;287.52;57.47;;;6.50;99.90;;;;;;4945783;28;20068;-50
2021/10/29 04:52:12;;;;;;;196.93;51.75;;;6.40;99.90;;;;;;4995939;28;20069;-52
2021/10/29 04:54:37;;;;;;;191.13;51.97;;;6.30;99.90;;;;;;4995548;28;20065;-51
2021/10/29 04:57:03;;;;;;;251.10;52.78;;;6.30;99.90;;;;;;4995558;28;20026;-52
2021/10/29 04:59:29;;;;;;;208.00;52.33;;;6.20;99.90;;;;;;4995619;28;20030;-49
2021/10/29 05:01:55;;;;;;;187.80;51.75;;;6.20;99.90;;;;;;4961109;28;20046;-51
2021/10/29 05:04:20;;;;;;;276.98;54.28;;;6.30;99.90;;;;;;4995496;28;20023;-49
2021/10/29 05:06:47;;;;;;;275.30;54.30;;;6.40;99.90;;;;;;4978000;28;20129;-51
2021/10/29 05:09:12;;;;;;;272.13;53.33;;;6.30;99.90;;;;;;4995207;28;20064;-52
2021/10/29 05:11:38;;;;;;;238.23;51.03;;;6.40;99.90;;;;;;4995416;28;20062;-51
2021/10/29 05:14:04;;;;;;;341.50;57.08;;;6.40;99.90;;;;;;4995349;28;20029;-51
2021/10/29 05:16:30;;;;;;;308.58;55.55;;;6.50;99.90;;;;;;4944969;28;20030;-49
2021/10/29 05:18:56;;;;;;;170.48;48.55;;;6.50;99.90;;;;;;4995158;28;20113;-52
2021/10/29 05:21:22;;;;;;;310.80;53.85;;;6.50;99.90;;;;;;4994981;28;20026;-49
2021/10/29 05:23:48;;;;;;;232.18;48.53;;;6.40;99.90;;;;;;4994967;28;20026;-51
2021/10/29 05:26:13;;;;;;;197.38;46.72;;;6.40;99.90;;;;;;4995224;28;20038;-51
2021/10/29 05:28:40;;;;;;;225.32;49.05;;;6.40;99.90;;;;;;4995001;28;20489;-51
2021/10/29 05:31:06;;;;;;;219.63;48.50;;;6.20;99.90;;;;;;4994144;28;20034;-52
2021/10/29 05:33:33;;;;;;;203.45;53.13;;;6.10;99.90;;;;;;4994883;28;20030;-49
2021/10/29 05:35:59;;;;;;;161.05;46.33;;;6.10;99.90;;;;;;5001603;28;20485;-50
2021/10/29 05:38:25;;;;;;;156.80;45.45;;;6.10;99.90;;;;;;4979797;28;20042;-51
2021/10/29 05:40:51;;;;;;;172.07;45.90;;;6.30;99.90;;;;;;4996011;28;20040;-52
2021/10/29 05:43:17;;;;;;;180.25;46.00;;;6.30;99.90;;;;;;4995816;28;20501;-51
2021/10/29 05:45:42;;;;;;;289.13;51.08;;;6.30;99.90;;;;;;5011215;28;20049;-52
2021/10/29 05:48:09;;;;;;;233.77;49.67;;;6.30;99.90;;;;;;4979547;28;20065;-52
2021/10/29 05:50:35;;;;;;;168.13;45.20;;;6.30;99.90;;;;;;4996551;28;20030;-51
2021/10/29 05:53:04;;;;;;;203.70;50.38;;;6.30;99.90;;;;;;5014139;28;20033;-49
2021/10/29 05:55:30;;;;;;;185.85;54.00;;;6.30;99.90;;;;;;5014001;28;20030;-51
2021/10/29 05:57:56;;;;;;;124.50;44.97;;;6.30;99.90;;;;;;5014169;28;20432;-49
2021/10/29 06:00:30;;;;;;;195.40;47.33;;;6.30;99.90;;;;;;5014023;28;20450;-50
2021/10/29 06:03:03;;;;;;;149.10;45.00;;;6.40;99.90;;;;;;5014086;28;20026;-50
2021/10/29 06:05:29;;;;;;;151.77;44.17;;;6.30;99.90;;;;;;5013836;28;20333;-51
2021/10/29 06:07:56;;;;;;;118.20;44.05;;;6.20;99.90;;;;;;4979291;28;20037;-51
2021/10/29 06:10:22;;;;;;;152.63;46.72;;;6.10;99.90;;;;;;5013903;28;20040;-49
2021/10/29 06:12:47;;;;;;;124.07;46.42;;;6.10;99.90;;;;;;5013859;28;20022;-52
2021/10/29 06:15:16;;;;;;;133.32;46.83;;;6.10;99.90;;;;;;4995446;28;20042;-50
2021/10/29 06:17:42;;;;;;;177.40;50.65;;;6.20;99.90;;;;;;5013812;28;20113;-51
2021/10/29 06:20:09;;;;;;;156.95;49.15;;;6.10;99.90;;;;;;5013848;28;20369;-50
2021/10/29 06:22:44;;;;;;;186.77;49.95;;;6.20;99.90;;;;;;5013647;28;20422;-50
2021/10/29 06:25:18;;;;;;;137.70;49.08;;;6.20;99.90;;;;;;4953090;29;20047;-49
2021/10/29 06:30:31;;;;;;;175.55;53.72;;;6.10;99.90;;;;;;4953479;29;20030;-51
2021/10/29 06:32:58;;;;;;;124.22;47.72;;;6.50;99.90;;;;;;4953218;29;20094;-50
2021/10/29 06:35:23;;;;;;;155.18;52.35;;;6.50;99.90;;;;;;4952875;29;20393;-50
2021/10/29 06:37:49;;;;;;;150.13;46.40;;;6.50;99.90;;;;;;4921099;29;20122;-50
2021/10/29 06:40:16;;;;;;;138.18;51.10;;;6.50;99.90;;;;;;4953185;29;20500;-52
2021/10/29 06:42:50;;;;;;;132.23;46.83;;;6.60;99.90;;;;;;4955802;28;20067;-49
2021/10/29 07:01:03;;;;;;;116.38;47.00;;;7.20;99.90;;;;;;4997862;28;20029;-52
2021/10/29 07:04:10;;;;;;;146.18;47.88;;;7.20;99.90;;;;;;4997759;28;20029;-50
2021/10/29 07:40:11;;;;;;;131.82;46.72;;;8.60;99.90;;;;;;4836140;29;20138;-50
2021/10/29 07:43:04;;;;;;;151.07;47.53;;;8.60;99.90;;;;;;4867527;29;20048;-50
2021/10/29 07:45:31;;;;;;;137.23;47.15;;;8.90;99.90;;;;;;4880163;29;20128;-52
2021/10/29 07:47:58;;;;;;;94.60;47.75;;;9.00;99.90;;;;;;4880402;29;20084;-52
2021/10/29 07:50:25;;;;;;;111.53;46.00;;;9.20;99.90;;;;;;4880347;29;20075;-51
2021/10/29 07:52:52;;;;;;;103.20;48.08;;;9.40;99.90;;;;;;4879963;29;20062;-52
2021/10/29 07:55:21;;;;;;;108.60;47.08;;;9.60;99.90;;;;;;4879925;29;20041;-51
2021/10/29 07:57:47;;;;;;;117.82;50.33;;;9.40;99.90;;;;;;4909713;29;20044;-49
2021/10/29 08:00:16;;;;;;;87.70;49.65;;;9.30;99.90;;;;;;4917801;29;20028;-51
2021/10/29 08:02:43;;;;;;;84.32;48.58;;;9.80;99.90;;;;;;4918451;28;20374;-51
2021/10/29 08:05:09;;;;;;;78.05;49.85;;;10.30;99.90;;;;;;4996764;28;20035;-50
2021/10/29 08:07:35;;;;;;;108.85;50.90;;;10.40;99.90;;;;;;4996560;28;20033;-49
2021/10/29 08:10:03;;;;;;;124.60;54.53;;;10.50;99.90;;;;;;4996617;28;20367;-52
2021/10/29 08:12:30;;;;;;;81.25;48.60;;;10.20;99.90;;;;;;4996622;28;20096;-52
2021/10/29 08:14:56;;;;;;;112.82;55.45;;;9.90;99.90;;;;;;4996463;28;20401;-50
2021/10/29 08:17:22;;;;;;;106.90;56.65;;;10.10;99.90;;;;;;4996598;28;20036;-52
2021/10/29 08:19:47;;;;;;;110.75;59.63;;;10.20;99.90;;;;;;4996460;28;20030;-51
2021/10/29 08:22:14;;;;;;;121.63;64.72;;;10.20;99.90;;;;;;4962004;28;20038;-52
2021/10/29 08:24:40;;;;;;;96.90;64.28;;;10.50;99.90;;;;;;4962173;28;20094;-50
2021/10/29 08:27:07;;;;;;;111.22;65.97;;;10.60;99.90;;;;;;4996432;28;20117;-52
2021/10/29 08:29:33;;;;;;;154.15;70.35;;;10.90;99.90;;;;;;4996277;28;20022;-52
2021/10/29 08:32:00;;;;;;;159.85;101.35;;;10.70;99.90;;;;;;4996364;28;20543;-50
2021/10/29 08:34:26;;;;;;;137.75;91.63;;;10.70;99.90;;;;;;4996367;28;20374;-52
2021/10/29 08:36:57;;;;;;;150.50;103.65;;;10.40;99.90;;;;;;5010173;28;20490;-52
2021/10/29 08:39:28;;;;;;;105.97;79.30;;;10.50;99.90;;;;;;5015872;28;20033;-50
2021/10/29 08:41:55;;;;;;;127.65;96.15;;;10.80;99.90;;;;;;5015610;28;20286;-52
2021/10/29 08:44:21;;;;;;;87.38;66.75;;;11.10;99.90;;;;;;4980918;28;20040;-52
2021/10/29 08:46:48;;;;;;;86.20;67.35;;;10.60;99.90;;;;;;5015710;28;20382;-51
2021/10/29 08:49:15;;;;;;;100.22;72.03;;;11.00;99.90;;;;;;5015624;28;20038;-52
2021/10/29 08:51:42;;;;;;;101.13;73.15;;;11.50;99.90;;;;;;5015403;28;20381;-51
2021/10/29 08:54:09;;;;;;;101.20;68.28;;;11.60;99.90;;;;;;5015480;28;20188;-52
2021/10/29 08:56:35;;;;;;;109.97;70.85;;;11.60;99.90;;;;;;5015556;28;20030;-53
2021/10/29 08:59:18;;;;;;;105.40;69.43;;;11.50;99.90;;;;;;5015663;28;20088;-50
2021/10/29 09:02:47;;;;;;;92.43;66.35;;;11.50;99.90;;;;;;5015423;28;20038;-53
2021/10/29 09:04:58;;;;;;;91.97;68.95;;;11.30;99.90;;;;;;5003908;28;20177;-51
2021/10/29 09:31:23;;;;;;;97.75;69.70;;;10.70;99.90;;;;;;5014986;28;20080;-50
2021/10/29 09:32:39;;;;;;;97.15;72.93;;;11.60;99.90;;;;;;5015000;28;20386;-52
2021/10/29 09:35:09;;;;;;;93.47;68.63;;;12.50;99.90;;;;;;5014617;28;20343;-51
2021/10/29 09:37:56;;;;;;;86.35;62.90;;;14.00;99.90;;;;;;5014592;28;20050;-50
2021/10/29 09:40:22;;;;;;;84.63;61.85;;;14.60;99.90;;;;;;5014491;28;20029;-50
2021/10/29 09:42:51;;;;;;;81.97;61.70;;;15.10;99.90;;;;;;5014373;28;20516;-51
2021/10/29 09:45:27;;;;;;;93.07;67.65;;;14.70;99.90;;;;;;5014367;28;20485;-54
2021/10/29 09:48:13;;;;;;;75.60;61.70;;;14.30;99.90;;;;;;5019160;28;20037;-50
2021/10/29 09:50:48;;;;;;;72.75;59.17;;;15.00;99.90;;;;;;5029859;28;20040;-53
2021/10/29 09:58:51;;;;;;;66.43;55.58;;;17.90;95.60;;;;;;4918596;29;20040;-49
2021/10/29 10:01:22;;;;;;;66.07;54.70;;;18.50;95.70;;;;;;4936887;29;20031;-51
2021/10/29 10:03:52;;;;;;;64.70;56.97;;;19.20;93.80;;;;;;4937632;29;20113;-51
2021/10/29 10:06:20;;;;;;;63.05;52.47;;;20.00;93.20;;;;;;4950919;29;20138;-50
2021/10/29 10:08:46;;;;;;;72.18;60.42;;;20.60;92.20;;;;;;4937312;29;20043;-50
2021/10/29 10:11:15;;;;;;;65.03;56.83;;;21.10;91.40;;;;;;4921608;29;20529;-51
2021/10/29 10:13:41;;;;;;;59.30;51.58;;;21.30;90.30;;;;;;4950185;29;20047;-52
2021/10/29 10:16:09;;;;;;;66.50;59.53;;;21.70;88.40;;;;;;4953248;28;20042;-52
2021/10/29 10:18:35;;;;;;;63.65;56.80;;;21.50;87.50;;;;;;4953079;29;20050;-48
2021/10/29 10:21:04;;;;;;;60.97;52.88;;;21.40;87.30;;;;;;4953159;29;20031;-50
2021/10/29 10:23:35;;;;;;;60.80;54.30;;;21.40;86.00;;;;;;4952437;29;20031;-46
2021/10/29 10:46:13;;;;;;;80.35;61.65;;;20.10;88.30;;;;;;4914834;29;20486;-49
2021/10/29 10:51:58;;;;;;;71.53;53.80;;;20.00;88.60;;;;;;4858838;29;20040;-51
2021/10/29 10:57:07;;;;;;;73.35;53.40;;;20.60;88.40;;;;;;4858821;29;20048;-51
2021/10/29 11:05:33;;;;;;;74.93;54.05;;;21.00;86.40;;;;;;4858642;29;20093;-52
2021/10/29 11:10:22;;;;;;;71.95;52.97;;;21.20;86.00;;;;;;4877157;29;20041;-50
2021/10/29 11:12:49;;;;;;;72.43;54.28;;;21.50;85.00;;;;;;4845671;29;20127;-52
2021/10/29 11:15:22;;;;;;;74.32;52.88;;;21.90;84.00;;;;;;4840151;29;20073;-51
2021/10/29 11:18:13;;;;;;;82.30;53.33;;;22.10;83.50;;;;;;4862736;29;20050;-52
2021/10/29 11:23:09;;;;;;;71.03;54.47;;;21.40;84.70;;;;;;4821859;29;20043;-49
2021/10/29 11:25:50;;;;;;;70.80;52.70;;;21.30;85.60;;;;;;4821722;29;20050;-50
2021/10/29 11:28:23;;;;;;;75.25;51.08;;;21.90;84.30;;;;;;4870478;29;20037;-51
2021/10/29 11:30:53;;;;;;;72.05;51.08;;;22.40;83.60;;;;;;4880474;29;20049;-50
2021/10/29 11:33:19;;;;;;;69.80;49.50;;;22.80;83.30;;;;;;4880374;29;20513;-52
2021/10/29 11:36:01;;;;;;;74.82;52.60;;;21.90;82.50;;;;;;4885101;29;20084;-50
2021/10/29 11:38:31;;;;;;;74.82;51.53;;;21.30;84.70;;;;;;4899146;29;20040;-52
2021/10/29 11:40:58;;;;;;;63.92;49.03;;;21.80;85.00;;;;;;4883325;29;20438;-51
2021/10/29 11:43:27;;;;;;;69.80;46.88;;;22.00;84.70;;;;;;4899215;29;20123;-50
2021/10/29 11:45:54;;;;;;;79.82;52.58;;;22.10;83.10;;;;;;4898944;29;20073;-50
2021/10/29 11:48:20;;;;;;;70.72;51.50;;;22.10;84.00;;;;;;4898667;29;20044;-50
2021/10/29 11:50:46;;;;;;;63.20;46.17;;;22.20;84.60;;;;;;4898803;29;20044;-51
2021/10/29 11:53:16;;;;;;;82.75;53.30;;;21.90;84.00;;;;;;4898917;29;20141;-50
2021/10/29 11:55:49;;;;;;;74.45;51.85;;;21.70;85.20;;;;;;4898333;29;20037;-50
2021/10/29 11:58:39;;;;;;;83.47;52.33;;;21.40;86.00;;;;;;4923221;29;20043;-50
2021/10/29 12:09:28;;;;;;;68.88;50.65;;;20.30;88.50;;;;;;4909424;29;20039;-52
2021/10/29 12:12:04;;;;;;;74.50;50.33;;;20.70;87.80;;;;;;4904305;29;20036;-52
2021/10/29 12:14:32;;;;;;;70.32;51.15;;;21.20;87.40;;;;;;4944453;29;20102;-51
2021/10/29 12:17:22;;;;;;;75.65;50.95;;;20.70;88.20;;;;;;4943397;29;20041;-52
2021/10/29 12:19:51;;;;;;;70.20;51.25;;;20.70;88.60;;;;;;4954888;29;20082;-52
2021/10/29 12:24:53;;;;;;;66.28;49.33;;;20.60;89.00;;;;;;4955236;29;20419;-51
2021/10/29 12:27:29;;;;;;;66.47;49.03;;;21.00;88.70;;;;;;4955113;29;20058;-53
2021/10/29 12:52:52;;;;;;;85.72;61.28;;;19.80;90.30;;;;;;5002195;28;20091;-52
2021/10/29 13:03:24;;;;;;;108.85;69.60;;;19.90;90.90;;;;;;5001711;28;20036;-53
2021/10/29 13:05:56;;;;;;;94.70;60.80;;;20.00;90.40;;;;;;5001199;28;20490;-48
2021/10/29 13:08:23;;;;;;;72.35;44.90;;;20.30;90.00;;;;;;5000481;28;20044;-48
2021/10/29 13:10:55;;;;;;;75.47;44.42;;;20.20;90.60;;;;;;4991650;28;20375;-53
2021/10/29 13:13:31;;;;;;;67.32;47.72;;;20.40;90.50;;;;;;4993885;28;20526;-51
2021/10/29 13:16:03;;;;;;;72.32;46.97;;;20.60;90.00;;;;;;5002249;28;20026;-52
2021/10/29 13:35:24;;;;;;;64.47;44.20;;;20.50;90.10;;;;;;4876459;29;20079;-52
2021/10/29 13:50:26;;;;;;;81.45;50.65;;;20.90;89.60;;;;;;4849088;29;20073;-52
2021/10/29 13:52:18;;;;;;;67.38;46.88;;;20.00;90.20;;;;;;4858250;29;20073;-50
2021/10/29 14:30:08;;;;;;;97.65;63.40;;;19.70;91.60;;;;;;4953493;29;20042;-53
2021/10/29 14:40:24;;;;;;;81.68;61.08;;;19.00;92.40;;;;;;4953501;29;20050;-54
2021/10/29 14:42:55;;;;;;;84.32;55.60;;;18.90;92.60;;;;;;4953400;29;20910;-54
2021/10/29 15:24:44;;;;;;;96.18;66.55;;;15.60;98.20;;;;;;4843868;29;20140;-54
2021/10/29 15:29:39;;;;;;;114.47;75.97;;;15.20;99.30;;;;;;4880719;29;20101;-53
2021/10/29 15:43:31;;;;;;;129.27;84.65;;;14.50;99.90;;;;;;4918166;29;20083;-52
2021/10/29 15:46:06;;;;;;;124.05;84.93;;;14.50;99.90;;;;;;4905847;29;20519;-52
2021/10/29 15:48:42;;;;;;;133.85;88.30;;;14.40;99.90;;;;;;4917867;29;20174;-52
2021/10/29 15:51:08;;;;;;;128.35;85.93;;;14.40;99.90;;;;;;4917904;29;20039;-52
2021/10/29 15:53:34;;;;;;;154.48;100.25;;;14.20;99.90;;;;;;4902253;29;20103;-53
2021/10/29 15:56:10;;;;;;;128.50;82.43;;;14.10;99.90;;;;;;4917884;29;20040;-52
2021/10/29 16:17:23;;;;;;;124.38;84.40;;;13.30;99.90;;;;;;4977550;28;20490;-53
2021/10/29 16:19:49;;;;;;;130.20;85.60;;;13.30;99.90;;;;;;4977162;28;20054;-52
2021/10/29 16:22:20;;;;;;;126.68;84.03;;;13.40;99.90;;;;;;4976870;28;20038;-51
2021/10/29 16:25:11;;;;;;;128.45;89.03;;;13.20;99.90;;;;;;4977125;28;20467;-52
2021/10/29 16:27:44;;;;;;;127.70;89.50;;;13.10;99.90;;;;;;4976520;28;20154;-52
2021/10/29 16:30:11;;;;;;;125.07;85.13;;;12.90;99.90;;;;;;4959491;28;20121;-52
2021/10/29 16:35:21;;;;;;;117.18;83.28;;;12.70;99.90;;;;;;4978337;28;20170;-52
2021/10/29 16:37:47;;;;;;;124.40;86.30;;;12.80;99.90;;;;;;4996150;28;20101;-53
2021/10/29 16:40:14;;;;;;;120.97;85.40;;;12.80;99.90;;;;;;4996138;28;20041;-51
2021/10/29 16:42:41;;;;;;;125.82;87.57;;;12.80;99.90;;;;;;4995644;28;20154;-53
2021/10/29 16:45:09;;;;;;;129.32;89.97;;;12.70;99.90;;;;;;4995661;28;20054;-53
2021/10/29 16:47:36;;;;;;;131.18;88.55;;;12.70;99.90;;;;;;4954809;29;20125;-49
2021/10/29 16:50:03;;;;;;;126.95;86.30;;;12.70;99.90;;;;;;4954620;29;20665;-49
2021/10/29 16:52:29;;;;;;;142.00;93.85;;;12.70;99.90;;;;;;4960192;28;20035;-51
2021/10/29 16:54:55;;;;;;;125.38;87.50;;;12.70;99.90;;;;;;4944028;28;20045;-54
2021/10/29 16:57:21;;;;;;;148.93;96.95;;;12.70;99.90;;;;;;4940366;28;20039;-48
2021/10/29 16:59:47;;;;;;;162.60;101.68;;;12.70;99.90;;;;;;4972918;28;20589;-49
2021/10/29 17:02:13;;;;;;;159.77;102.88;;;12.60;99.90;;;;;;4973419;28;20054;-50
2021/10/29 17:04:39;;;;;;;169.90;107.57;;;12.60;99.90;;;;;;4972894;28;20043;-53
2021/10/29 17:07:07;;;;;;;150.20;99.53;;;12.60;99.90;;;;;;4972653;28;20038;-52
2021/10/29 17:09:33;;;;;;;126.07;90.15;;;12.60;99.90;;;;;;4972948;28;20101;-51
2021/10/29 17:11:59;;;;;;;128.65;89.78;;;12.50;99.90;;;;;;4972831;28;20565;-53
2021/10/29 17:14:26;;;;;;;135.45;95.03;;;12.60;99.90;;;;;;4972717;28;20030;-52
2021/10/29 17:16:53;;;;;;;133.18;96.78;;;12.60;99.90;;;;;;4973393;28;20403;-50
2021/10/29 17:19:19;;;;;;;133.38;94.05;;;12.40;99.90;;;;;;4972829;28;20039;-59
2021/10/29 17:21:44;;;;;;;140.52;99.60;;;12.40;99.90;;;;;;4973447;28;20041;-49
2021/10/29 17:24:10;;;;;;;145.90;98.78;;;12.40;99.90;;;;;;4976683;28;20069;-53
2021/10/29 17:26:36;;;;;;;142.10;99.22;;;12.30;99.90;;;;;;4979248;28;20042;-53
2021/10/29 17:29:03;;;;;;;134.23;93.45;;;12.30;99.90;;;;;;4952133;28;20040;-51
2021/10/29 17:31:29;;;;;;;147.93;95.93;;;12.20;99.90;;;;;;4962958;28;20179;-51
2021/10/29 17:33:55;;;;;;;127.75;91.60;;;12.10;99.90;;;;;;4996527;28;20517;-54
2021/10/29 17:36:21;;;;;;;139.98;94.65;;;12.10;99.90;;;;;;4952526;28;20050;-55
2021/10/29 17:38:46;;;;;;;145.15;99.72;;;12.20;99.90;;;;;;4986136;28;20077;-51
2021/10/29 17:41:13;;;;;;;136.32;97.47;;;12.20;99.90;;;;;;4933696;28;20042;-55
2021/10/29 17:43:39;;;;;;;131.70;91.13;;;12.20;99.90;;;;;;4985913;28;20469;-51